createdAt,value
2022-12-01T00:01:27.228Z,17.65
2022-12-01T00:03:55.016Z,19.08
2022-12-01T00:06:23.098Z,17.08
2022-12-01T00:09:12.990Z,16.90
2022-12-01T00:11:42.730Z,17.85
2022-12-01T00:14:10.086Z,15.20
2022-12-01T00:16:37.427Z,18.25
2022-12-01T00:19:04.917Z,20.08
2022-12-01T00:21:32.437Z,16.05
2022-12-01T00:23:59.815Z,17.30
2022-12-01T00:26:28.017Z,14.18
2022-12-01T00:28:57.731Z,17.40
2022-12-01T00:31:26.155Z,18.75
2022-12-01T00:33:53.619Z,17.15
2022-12-01T00:36:24.809Z,19.13
2022-12-01T00:38:56.136Z,15.52
2022-12-01T00:41:25.955Z,18.52
2022-12-01T00:43:53.783Z,16.85
2022-12-01T00:46:21.738Z,19.33
2022-12-01T00:48:49.738Z,24.35
2022-12-01T00:51:17.255Z,24.83
2022-12-01T00:53:44.609Z,27.23
2022-12-01T00:56:12.273Z,21.40
2022-12-01T00:58:39.714Z,23.27
2022-12-01T01:01:07.988Z,26.50
2022-12-01T01:03:35.699Z,20.08
2022-12-01T01:06:11.988Z,20.60
2022-12-01T01:08:40.445Z,22.55
2022-12-01T01:11:09.124Z,20.50
2022-12-01T01:13:37.442Z,21.05
2022-12-01T01:16:11.566Z,19.73
2022-12-01T01:18:39.133Z,23.15
2022-12-01T01:21:09.431Z,18.73
2022-12-01T01:23:38.115Z,20.88
2022-12-01T01:26:08.433Z,21.15
2022-12-01T01:28:36.256Z,19.83
2022-12-01T01:31:10.613Z,20.50
2022-12-01T01:33:38.392Z,22.10
2022-12-01T01:36:06.765Z,21.33
2022-12-01T01:38:34.987Z,16.75
2022-12-01T01:41:03.976Z,27.38
2022-12-01T01:43:53.183Z,25.20
2022-12-01T01:46:28.316Z,21.33
2022-12-01T01:49:09.896Z,22.95
2022-12-01T01:51:55.574Z,26.25
2022-12-01T01:54:27.265Z,22.15
2022-12-01T01:56:57.779Z,24.98
2022-12-01T01:59:31.908Z,18.35
2022-12-01T02:02:11.174Z,22.98
2022-12-01T02:04:45.504Z,19.80
2022-12-01T02:07:17.918Z,17.88
2022-12-01T02:09:46.465Z,17.25
2022-12-01T02:12:19.831Z,20.08
2022-12-01T02:14:59.743Z,19.75
2022-12-01T02:17:42.146Z,18.80
2022-12-01T02:20:28.268Z,19.58
2022-12-01T02:23:39.695Z,20.05
2022-12-01T02:26:31.889Z,21.42
2022-12-01T02:29:36.833Z,18.17
2022-12-01T02:32:24.405Z,20.48
2022-12-01T02:35:03.783Z,23.42
2022-12-01T02:37:42.062Z,26.05
2022-12-01T02:40:27.915Z,27.55
2022-12-01T02:42:59.856Z,20.98
2022-12-01T02:45:30.658Z,25.23
2022-12-01T02:48:03.204Z,28.00
2022-12-01T02:50:34.622Z,22.20
2022-12-01T02:53:04.599Z,20.38
2022-12-01T02:55:31.982Z,26.80
2022-12-01T02:57:59.337Z,24.60
2022-12-01T03:00:26.734Z,23.15
2022-12-01T03:03:24.438Z,26.45
2022-12-01T03:06:03.142Z,25.83
2022-12-01T03:08:47.558Z,27.38
2022-12-01T03:11:34.432Z,27.83
2022-12-01T03:14:32.775Z,26.65
2022-12-01T03:17:05.962Z,21.02
2022-12-01T03:19:42.973Z,21.35
2022-12-01T03:22:15.856Z,24.75
2022-12-01T03:27:15.840Z,29.13
2022-12-01T03:29:48.408Z,24.20
2022-12-01T03:32:38.348Z,18.63
2022-12-01T03:35:12.749Z,22.70
2022-12-01T03:37:53.326Z,23.70
2022-12-01T03:40:27.454Z,23.60
2022-12-01T03:43:02.120Z,24.88
2022-12-01T03:45:54.532Z,24.45
2022-12-01T03:48:24.202Z,28.23
2022-12-01T03:51:15.379Z,25.67
2022-12-01T03:54:00.490Z,20.85
2022-12-01T03:56:33.628Z,23.48
2022-12-01T03:59:03.347Z,26.83
2022-12-01T04:01:33.412Z,23.48
2022-12-01T04:04:09.840Z,25.60
2022-12-01T04:06:37.766Z,26.85
2022-12-01T04:09:05.206Z,24.77
2022-12-01T04:11:54.795Z,23.45
2022-12-01T04:14:24.154Z,26.67
2022-12-01T04:16:51.607Z,26.92
2022-12-01T04:19:18.961Z,28.45
2022-12-01T04:21:46.464Z,30.95
2022-12-01T04:24:14.208Z,27.83
2022-12-01T04:26:43.075Z,27.92
2022-12-01T04:29:12.020Z,25.05
2022-12-01T04:31:39.850Z,23.05
2022-12-01T04:34:10.221Z,27.23
2022-12-01T04:36:37.542Z,28.58
2022-12-01T04:39:07.122Z,24.63
2022-12-01T04:41:37.440Z,25.90
2022-12-01T04:44:04.854Z,24.27
2022-12-01T04:46:32.226Z,25.48
2022-12-01T04:48:59.665Z,23.35
2022-12-01T04:51:27.026Z,24.92
2022-12-01T04:53:54.336Z,23.80
2022-12-01T04:56:21.762Z,20.90
2022-12-01T04:58:49.651Z,26.13
2022-12-01T05:01:18.684Z,20.48
2022-12-01T05:03:51.303Z,24.70
2022-12-01T05:06:25.899Z,21.90
2022-12-01T05:08:56.969Z,19.77
2022-12-01T05:11:25.445Z,21.85
2022-12-01T05:13:52.835Z,19.30
2022-12-01T05:16:21.415Z,19.55
2022-12-01T05:19:17.569Z,23.75
2022-12-01T05:21:48.399Z,29.10
2022-12-01T05:24:17.461Z,30.35
2022-12-01T05:26:45.458Z,23.50
2022-12-01T05:29:13.507Z,26.83
2022-12-01T05:31:41.408Z,26.77
2022-12-01T05:34:08.956Z,33.20
2022-12-01T05:36:36.663Z,30.02
2022-12-01T05:39:05.365Z,24.23
2022-12-01T05:41:32.915Z,27.98
2022-12-01T05:44:01.107Z,27.38
2022-12-01T05:46:28.468Z,23.90
2022-12-01T05:48:55.925Z,30.85
2022-12-01T05:51:23.820Z,27.23
2022-12-01T05:53:51.452Z,34.50
2022-12-01T05:56:20.419Z,32.40
2022-12-01T05:58:47.787Z,37.35
2022-12-01T06:01:15.887Z,36.22
2022-12-01T06:03:43.572Z,34.47
2022-12-01T06:06:11.208Z,35.08
2022-12-01T06:08:41.620Z,28.33
2022-12-01T06:11:09.074Z,29.35
2022-12-01T06:13:36.397Z,36.42
2022-12-01T06:16:06.552Z,36.53
2022-12-01T06:18:37.557Z,44.42
2022-12-01T06:21:06.611Z,42.03
2022-12-01T06:23:34.380Z,43.92
2022-12-01T06:26:04.180Z,52.55
2022-12-01T06:28:31.626Z,60.13
2022-12-01T06:31:03.155Z,59.30
2022-12-01T06:33:31.939Z,57.35
2022-12-01T06:36:04.558Z,52.10
2022-12-01T06:38:38.355Z,52.35
2022-12-01T06:41:05.977Z,49.03
2022-12-01T06:43:35.631Z,47.78
2022-12-01T06:46:04.791Z,53.80
2022-12-01T06:48:39.287Z,48.67
2022-12-01T06:51:06.761Z,53.35
2022-12-01T06:53:34.079Z,48.97
2022-12-01T06:56:02.715Z,46.25
2022-12-01T06:58:30.584Z,45.00
2022-12-01T07:00:59.277Z,48.15
2022-12-01T07:03:26.887Z,45.13
2022-12-01T07:05:59.720Z,51.53
2022-12-01T07:11:10.274Z,65.78
2022-12-01T07:13:37.514Z,75.80
2022-12-01T07:16:08.500Z,71.70
2022-12-01T07:18:37.265Z,73.57
2022-12-01T07:21:11.595Z,75.55
2022-12-01T07:23:39.201Z,73.38
2022-12-01T07:26:11.374Z,76.15
2022-12-01T07:28:38.839Z,79.57
2022-12-01T07:31:19.635Z,88.28
2022-12-01T07:33:47.053Z,87.68
2022-12-01T07:36:14.699Z,100.28
2022-12-01T07:38:42.207Z,102.13
2022-12-01T07:41:12.541Z,93.07
2022-12-01T07:43:40.711Z,103.75
2022-12-01T07:46:10.983Z,99.10
2022-12-01T07:48:39.603Z,87.60
2022-12-01T07:51:09.543Z,88.07
2022-12-01T07:53:37.552Z,80.80
2022-12-01T07:56:14.194Z,107.90
2022-12-01T07:58:44.787Z,87.93
2022-12-01T08:01:14.910Z,86.18
2022-12-01T08:03:43.532Z,63.10
2022-12-01T08:06:11.764Z,61.20
2022-12-01T08:08:41.085Z,65.30
2022-12-01T08:11:14.110Z,64.38
2022-12-01T08:13:42.533Z,72.35
2022-12-01T08:16:12.186Z,67.75
2022-12-01T08:18:40.820Z,69.43
2022-12-01T08:21:09.816Z,76.47
2022-12-01T08:23:37.280Z,64.78
2022-12-01T08:26:12.765Z,59.00
2022-12-01T08:28:40.582Z,57.63
2022-12-01T08:31:19.712Z,49.80
2022-12-01T08:33:48.388Z,45.90
2022-12-01T08:36:15.950Z,51.22
2022-12-01T08:38:45.325Z,44.33
2022-12-01T08:41:18.127Z,47.88
2022-12-01T08:44:01.923Z,57.00
2022-12-01T08:46:36.211Z,43.97
2022-12-01T12:38:00.445Z,15.95
2022-12-01T15:29:09.739Z,35.88
2022-12-01T15:31:40.341Z,35.13
2022-12-01T15:34:19.234Z,31.92
2022-12-01T15:36:47.380Z,35.42
2022-12-01T15:39:17.867Z,37.97
2022-12-01T15:41:48.676Z,36.47
2022-12-01T15:44:31.877Z,43.92
2022-12-01T15:49:33.145Z,48.22
2022-12-01T15:52:10.499Z,49.85
2022-12-01T15:54:38.926Z,53.65
2022-12-01T15:57:06.978Z,64.60
2022-12-01T15:59:41.809Z,54.30
2022-12-01T16:02:24.353Z,62.78
2022-12-01T16:05:10.896Z,59.22
2022-12-01T16:08:11.619Z,78.05
2022-12-01T16:10:28.087Z,71.32
2022-12-01T16:13:34.007Z,66.25
2022-12-01T16:16:02.192Z,76.13
2022-12-01T16:18:33.270Z,87.65
2022-12-01T16:21:05.793Z,83.20
2022-12-01T16:23:34.730Z,102.78
2022-12-01T16:26:09.057Z,98.25
2022-12-01T16:28:36.867Z,249.82
2022-12-01T16:31:06.099Z,298.48
2022-12-01T16:33:39.359Z,781.53
2022-12-01T16:36:07.693Z,652.38
2022-12-01T16:38:36.687Z,713.63
2022-12-01T16:41:17.620Z,589.47
2022-12-01T16:44:12.530Z,517.85
2022-12-01T16:46:35.234Z,495.20
2022-12-01T16:49:03.385Z,419.23
2022-12-01T16:51:50.013Z,365.35
2022-12-01T16:54:18.814Z,326.55
2022-12-01T16:56:46.263Z,279.55
2022-12-01T16:59:13.773Z,271.25
2022-12-01T17:01:41.730Z,246.43
2022-12-01T17:04:10.683Z,239.18
2022-12-01T17:06:38.673Z,221.48
2022-12-01T17:09:06.733Z,215.88
2022-12-01T17:11:34.785Z,209.65
2022-12-01T17:14:02.401Z,184.18
2022-12-01T17:16:30.275Z,182.65
2022-12-01T17:18:58.717Z,177.50
2022-12-01T17:21:26.554Z,170.40
2022-12-01T17:23:54.827Z,182.10
2022-12-01T17:26:23.318Z,175.43
2022-12-01T17:28:51.093Z,161.73
2022-12-01T17:31:18.932Z,183.82
2022-12-01T17:33:46.668Z,182.70
2022-12-01T17:36:15.469Z,198.13
2022-12-01T17:38:46.187Z,186.10
2022-12-01T17:41:21.988Z,188.23
2022-12-01T17:43:49.612Z,176.93
2022-12-01T17:46:17.654Z,186.40
2022-12-01T17:48:47.139Z,180.00
2022-12-01T17:51:15.584Z,186.18
2022-12-01T17:53:43.345Z,181.90
2022-12-01T17:56:13.847Z,191.02
2022-12-01T17:58:44.913Z,183.57
2022-12-01T18:01:18.952Z,178.75
2022-12-01T18:03:47.180Z,172.57
2022-12-01T18:06:16.435Z,174.32
2022-12-01T18:08:44.504Z,168.30
2022-12-01T18:11:18.707Z,180.40
2022-12-01T18:13:48.333Z,185.60
2022-12-01T18:16:28.393Z,170.23
2022-12-01T18:18:59.503Z,183.82
2022-12-01T18:21:28.669Z,181.30
2022-12-01T18:24:00.940Z,196.75
2022-12-01T18:26:30.246Z,211.27
2022-12-01T18:29:10.070Z,206.57
2022-12-01T18:31:38.590Z,206.02
2022-12-01T18:34:07.868Z,224.38
2022-12-01T18:36:37.594Z,230.68
2022-12-01T18:39:07.844Z,232.05
2022-12-01T18:41:36.434Z,254.20
2022-12-01T18:44:04.924Z,270.75
2022-12-01T18:46:33.074Z,266.40
2022-12-01T18:49:02.655Z,273.40
2022-12-01T18:51:33.459Z,299.45
2022-12-01T18:54:05.858Z,309.55
2022-12-01T18:56:36.693Z,287.08
2022-12-01T18:59:07.921Z,291.85
2022-12-01T19:01:38.261Z,299.77
2022-12-01T19:04:07.794Z,300.73
2022-12-01T19:06:40.008Z,300.60
2022-12-01T19:09:13.235Z,302.45
2022-12-01T19:11:43.336Z,312.38
2022-12-01T19:14:17.112Z,312.63
2022-12-01T19:16:46.258Z,322.98
2022-12-01T19:19:14.379Z,318.92
2022-12-01T19:21:43.395Z,323.00
2022-12-01T19:24:11.198Z,304.25
2022-12-01T19:26:40.307Z,324.90
2022-12-01T19:29:09.190Z,333.73
2022-12-01T19:31:36.894Z,327.73
2022-12-01T19:34:05.170Z,295.67
2022-12-01T19:36:33.573Z,309.08
2022-12-01T19:39:07.485Z,299.17
2022-12-01T19:41:38.275Z,328.30
2022-12-01T19:44:06.361Z,333.55
2022-12-01T19:46:34.380Z,315.73
2022-12-01T19:49:02.979Z,324.42
2022-12-01T19:51:39.555Z,331.58
2022-12-01T19:54:19.672Z,303.00
2022-12-01T19:56:47.668Z,293.48
2022-12-01T19:59:22.710Z,278.02
2022-12-01T20:01:51.552Z,265.23
2022-12-01T20:04:22.355Z,264.27
2022-12-01T20:06:50.407Z,242.93
2022-12-01T20:09:21.401Z,208.43
2022-12-01T20:11:49.097Z,182.15
2022-12-01T20:14:20.035Z,142.75
2022-12-01T20:16:47.998Z,123.07
2022-12-01T20:19:18.290Z,136.52
2022-12-01T20:21:46.201Z,96.82
2022-12-01T20:24:16.125Z,98.30
2022-12-01T20:26:47.046Z,91.72
2022-12-01T20:29:19.100Z,90.53
2022-12-01T20:31:49.716Z,97.63
2022-12-01T20:34:25.087Z,91.13
2022-12-01T20:36:54.305Z,92.45
2022-12-01T20:39:23.825Z,90.60
2022-12-01T20:41:51.915Z,80.93
2022-12-01T20:44:20.329Z,72.82
2022-12-01T20:46:48.138Z,74.22
2022-12-01T20:49:18.560Z,77.53
2022-12-01T20:51:49.644Z,77.18
2022-12-01T20:54:27.718Z,82.55
2022-12-01T20:56:57.173Z,78.35
2022-12-01T20:59:26.296Z,82.70
2022-12-01T21:01:54.429Z,71.22
2022-12-01T21:04:22.384Z,74.95
2022-12-01T21:06:50.840Z,69.22
2022-12-01T21:09:18.316Z,76.28
2022-12-01T21:12:07.136Z,73.97
2022-12-01T21:14:38.557Z,69.15
2022-12-01T21:17:21.631Z,68.50
2022-12-01T21:20:28.991Z,71.60
2022-12-01T21:23:06.541Z,68.38
2022-12-01T21:25:40.623Z,68.43
2022-12-01T21:28:19.054Z,58.83
2022-12-01T21:30:48.052Z,60.95
2022-12-01T21:33:42.806Z,53.97
2022-12-01T21:36:18.765Z,58.83
2022-12-01T21:38:48.531Z,63.85
2022-12-01T21:41:26.247Z,62.42
2022-12-01T21:44:07.887Z,54.33
2022-12-01T21:46:35.393Z,63.78
2022-12-01T21:49:05.898Z,61.65
2022-12-01T21:51:33.230Z,57.00
2022-12-01T21:54:02.297Z,61.45
2022-12-01T21:56:34.705Z,65.85
2022-12-01T21:59:25.788Z,54.45
2022-12-01T22:01:55.896Z,62.28
2022-12-01T22:04:31.486Z,59.78
2022-12-01T22:06:59.259Z,59.15
2022-12-01T22:09:30.585Z,67.30
2022-12-01T22:12:35.288Z,64.70
2022-12-01T22:15:28.409Z,71.53
2022-12-01T22:17:57.224Z,73.93
2022-12-01T22:20:24.798Z,78.15
2022-12-01T22:22:52.330Z,70.38
2022-12-01T22:25:26.892Z,70.20
2022-12-01T22:27:54.718Z,66.53
2022-12-01T22:30:24.098Z,61.55
2022-12-01T22:33:00.703Z,55.65
2022-12-01T22:35:48.454Z,61.30
2022-12-01T22:38:21.826Z,59.97
2022-12-01T22:40:49.480Z,60.78
2022-12-01T22:43:16.940Z,56.63
2022-12-01T22:45:47.385Z,55.53
2022-12-01T22:48:37.609Z,53.72
2022-12-01T22:51:16.967Z,51.92
2022-12-01T22:53:46.459Z,43.30
2022-12-01T22:56:40.432Z,52.88
2022-12-01T22:59:19.247Z,48.97
2022-12-01T23:01:54.464Z,53.25
2022-12-01T23:04:26.764Z,57.03
2022-12-01T23:07:26.835Z,61.90
2022-12-01T23:09:56.428Z,52.20
2022-12-01T23:12:32.422Z,55.53
2022-12-01T23:15:15.306Z,59.63
2022-12-01T23:17:43.049Z,66.57
2022-12-01T23:20:10.507Z,61.08
2022-12-01T23:22:38.629Z,77.63
2022-12-01T23:25:20.514Z,88.03
2022-12-01T23:27:50.528Z,125.15
2022-12-01T23:30:19.499Z,81.78
2022-12-01T23:32:56.040Z,72.60
2022-12-01T23:35:23.739Z,52.22
2022-12-01T23:37:53.266Z,42.50
2022-12-01T23:40:30.862Z,43.58
2022-12-01T23:43:10.346Z,45.97
2022-12-01T23:45:38.181Z,43.67
2022-12-01T23:48:13.662Z,44.40
2022-12-01T23:50:41.016Z,43.88
2022-12-01T23:53:28.601Z,44.70
2022-12-01T23:55:59.147Z,43.15
2022-12-01T23:58:27.114Z,45.10
